Time;durP1;ratioP1;P1;durP2;ratioP2;P2;SDS_P1;SDS_P2;PMS_P1;PMS_P2;Temp;Humidity;BMP_temperature;BMP_pressure;BME280_temperature;BME280_humidity;BME280_pressure;Samples;Min_cycle;Max_cycle;Signal;HPM_P1;HPM_P2
2023/07/14 00:00:29;;;;;;;;;14.00;14.00;;;;;27.79;50.06;101175.59;2063158;28;46870;-62
2023/07/14 00:01:29;;;;;;;;;3.00;1.60;;;;;27.76;49.91;101175.88;2067046;28;46877;-60
2023/07/14 00:02:30;;;;;;;;;13.75;13.00;;;;;27.75;49.99;101166.81;2071297;28;46357;-60
2023/07/14 00:03:30;;;;;;;;;13.50;12.75;;;;;27.75;49.87;101174.16;2071296;28;46378;-58
2023/07/14 00:04:33;;;;;;;;;16.75;16.75;;;;;27.76;50.28;101170.41;2079749;28;46400;-62
2023/07/14 00:05:37;;;;;;;;;16.20;15.00;;;;;27.74;49.93;101172.41;2079086;28;46565;-60
2023/07/14 00:06:37;;;;;;;;;21.80;18.60;;;;;27.72;49.81;101168.97;2069444;28;46581;-60
2023/07/14 00:07:37;;;;;;;;;20.75;19.75;;;;;27.68;49.68;101165.63;2066641;28;46273;-61
2023/07/14 00:08:39;;;;;;;;;21.50;21.00;;;;;27.65;50.23;101167.75;2061613;28;46233;-59
2023/07/14 00:09:42;;;;;;;;;20.00;19.80;;;;;27.66;49.66;101162.16;2062404;28;46673;-60
2023/07/14 00:10:42;;;;;;;;;21.40;21.00;;;;;27.68;49.73;101162.03;2055694;28;46883;-60
2023/07/14 00:11:42;;;;;;;;;20.00;18.75;;;;;27.66;49.97;101159.44;2055469;28;46751;-61
2023/07/14 00:12:43;;;;;;;;;20.50;20.50;;;;;27.64;49.73;101158.72;2070855;28;46759;-61
2023/07/14 00:13:44;;;;;;;;;19.80;18.40;;;;;27.64;49.60;101161.44;2070830;28;46209;-61
2023/07/14 00:14:45;;;;;;;;;17.75;15.00;;;;;27.63;49.75;101162.41;2071142;28;46360;-58
2023/07/14 00:15:46;;;;;;;;;19.50;17.25;;;;;27.59;50.33;101152.75;2071426;28;46327;-61
2023/07/14 00:16:47;;;;;;;;;15.00;12.80;;;;;27.58;50.20;101150.19;2062603;28;46986;-61
2023/07/14 00:17:51;;;;;;;;;11.75;11.00;;;;;27.58;50.39;101158.34;2062840;28;46362;-61
2023/07/14 00:18:51;;;;;;;;;13.00;13.00;;;;;27.56;49.85;101148.41;2071185;28;46367;-61
2023/07/14 00:19:52;;;;;;;;;12.00;12.00;;;;;27.58;50.36;101150.19;2070888;28;46459;-60
2023/07/14 00:20:52;;;;;;;;;13.25;11.75;;;;;27.59;50.37;101152.75;2062901;28;46038;-60
2023/07/14 00:21:53;;;;;;;;;11.00;11.00;;;;;27.62;49.85;101149.75;2062811;28;46339;-62
2023/07/14 00:22:55;;;;;;;;;11.75;10.50;;;;;27.62;50.43;101146.19;2070098;28;46658;-62
2023/07/14 00:24:00;;;;;;;;;12.40;12.40;;;;;27.62;49.90;101148.91;2076010;28;46912;-61
2023/07/14 00:25:04;;;;;;;;;8.80;8.80;;;;;27.61;50.31;101144.44;2067528;28;46650;-60
2023/07/14 00:26:13;;;;;;;;;12.00;11.60;;;;;27.64;50.45;101147.78;2088745;28;46339;-60
2023/07/14 00:27:19;;;;;;;;;14.40;13.00;;;;;27.62;50.24;101135.28;2097976;28;46361;-60
2023/07/14 00:28:21;;;;;;;;;12.40;10.60;;;;;27.60;50.25;101149.03;2105045;28;46984;-61
2023/07/14 00:29:30;;;;;;;;;11.00;11.00;;;;;27.63;50.21;101151.50;2104634;28;47468;-60
2023/07/14 00:30:30;;;;;;;;;12.00;11.20;;;;;27.60;50.52;101149.03;2103690;27;46758;-60
2023/07/14 00:31:31;;;;;;;;;11.25;11.25;;;;;27.56;50.70;101145.69;2103163;28;46309;-60
2023/07/14 00:32:31;;;;;;;;;11.25;11.25;;;;;27.53;50.28;101145.09;2105405;28;46592;-60
2023/07/14 00:33:31;;;;;;;;;12.75;11.50;;;;;27.53;50.72;101142.38;2105102;28;46601;-60
2023/07/14 00:34:31;;;;;;;;;12.50;11.50;;;;;27.52;50.60;101146.09;2105374;28;46131;-61
2023/07/14 00:35:32;;;;;;;;;8.75;8.75;;;;;27.51;50.88;101141.66;2104947;28;46289;-61
2023/07/14 00:36:32;;;;;;;;;13.75;12.25;;;;;27.50;50.62;101143.50;2105243;28;46659;-61
2023/07/14 00:37:32;;;;;;;;;10.50;10.50;;;;;27.50;50.62;101143.50;2104886;28;46883;-59
2023/07/14 00:38:34;;;;;;;;;14.50;10.25;;;;;27.50;50.34;101145.38;2105874;28;46232;-60
2023/07/14 00:39:35;;;;;;;;;10.80;9.00;;;;;27.51;50.82;101144.38;2104670;28;46512;-61
2023/07/14 00:40:42;;;;;;;;;10.50;10.50;;;;;27.49;50.97;101143.66;2095837;28;46537;-61
2023/07/14 00:41:44;;;;;;;;;10.00;9.40;;;;;27.49;51.31;101143.66;2096033;28;45748;-62
2023/07/14 00:42:47;;;;;;;;;9.20;9.20;;;;;27.50;51.02;101137.19;2104823;28;46625;-59
2023/07/14 00:43:49;;;;;;;;;12.60;10.20;;;;;27.49;51.08;101140.91;2104900;28;46969;-59
2023/07/14 00:44:53;;;;;;;;;10.20;10.00;;;;;27.56;51.29;101148.41;2101995;28;46874;-61
2023/07/14 00:45:56;;;;;;;;;10.20;10.20;;;;;27.52;51.16;101140.66;2105179;28;46718;-61
2023/07/14 00:46:57;;;;;;;;;10.60;10.00;;;;;27.52;51.24;101146.97;2105148;28;46523;-61
2023/07/14 00:48:04;;;;;;;;;11.00;11.00;;;;;27.49;51.40;101149.09;2105237;28;46381;-61
2023/07/14 00:49:12;;;;;;;;;11.60;11.60;;;;;27.59;50.69;101141.84;2104927;28;46556;-60
2023/07/14 00:50:38;;;;;;;;;12.20;12.00;;;;;27.60;51.11;101140.84;2097227;28;46341;-59
2023/07/14 00:51:40;;;;;;;;;13.00;13.00;;;;;27.56;51.25;101132.06;2077803;28;46588;-59
2023/07/14 00:52:40;;;;;;;;;15.60;10.40;;;;;27.55;50.80;101129.47;2078672;28;46607;-59
2023/07/14 00:53:45;;;;;;;;;8.20;7.20;;;;;27.56;51.12;101121.16;2079148;28;46351;-61
2023/07/14 00:54:51;;;;;;;;;15.20;12.40;;;;;27.59;51.48;101125.50;2079050;28;46538;-60
2023/07/14 00:56:01;;;;;;;;;10.80;10.80;;;;;27.60;50.85;101120.91;2078808;28;46848;-61
2023/07/14 00:57:01;;;;;;;;;9.40;9.40;;;;;27.59;50.88;101128.22;2077785;28;46280;-61
2023/07/14 00:58:04;;;;;;;;;9.00;9.00;;;;;27.58;51.31;101122.91;2077276;28;46290;-61
2023/07/14 00:59:12;;;;;;;;;9.80;9.00;;;;;27.59;51.41;101117.31;2083149;28;46686;-61
2023/07/14 01:00:24;;;;;;;;;9.80;9.20;;;;;27.59;50.91;101119.19;2079466;28;46456;-60
2023/07/14 01:01:25;;;;;;;;;9.00;9.00;;;;;27.54;51.46;101117.69;2078481;28;46872;-60
2023/07/14 01:02:25;;;;;;;;;9.80;8.60;;;;;27.56;51.09;101126.59;2075654;28;47017;-61
2023/07/14 01:03:26;;;;;;;;;8.50;8.50;;;;;27.62;50.89;101119.78;2078795;28;46393;-60
2023/07/14 01:04:26;;;;;;;;;9.00;9.00;;;;;27.54;51.36;101114.97;2079214;28;46310;-60
2023/07/14 01:05:28;;;;;;;;;12.50;9.25;;;;;27.54;50.78;101114.97;2079134;28;46586;-60
2023/07/14 01:06:36;;;;;;;;;8.80;8.80;;;;;27.54;51.24;101116.84;2078750;28;46527;-59
2023/07/14 01:07:40;;;;;;;;;9.80;9.20;;;;;27.53;51.37;101112.38;2071486;28;46561;-60
2023/07/14 01:08:50;;;;;;;;;6.80;6.80;;;;;27.52;51.37;101116.09;2074563;28;46589;-59
2023/07/14 01:09:54;;;;;;;;;8.80;7.80;;;;;27.49;51.44;101106.34;2078882;28;46358;-60
2023/07/14 01:10:55;;;;;;;;;8.00;8.00;;;;;27.47;51.52;101104.75;2061943;28;46434;-60
2023/07/14 01:11:56;;;;;;;;;8.50;8.50;;;;;27.45;52.14;101106.75;2062323;28;46846;-61
2023/07/14 01:13:06;;;;;;;;;12.00;10.80;;;;;27.46;51.74;101105.75;2061869;28;46206;-59
2023/07/14 01:14:13;;;;;;;;;10.00;9.20;;;;;27.45;51.55;101104.88;2059297;28;46624;-60
2023/07/14 01:15:15;;;;;;;;;12.20;12.20;;;;;27.44;51.62;101103.16;2062575;28;46317;-60
2023/07/14 01:16:16;;;;;;;;;11.20;10.60;;;;;27.43;51.64;101108.72;2062535;28;46393;-61
2023/07/14 01:17:18;;;;;;;;;12.00;12.00;;;;;27.42;51.75;101110.56;2063091;28;46173;-61
2023/07/14 01:18:19;;;;;;;;;10.80;9.80;;;;;27.42;51.86;101104.25;2062245;28;46341;-61
2023/07/14 01:19:43;;;;;;;;;10.80;10.80;;;;;27.42;52.33;101109.72;2062490;28;46394;-60
2023/07/14 01:20:43;;;;;;;;;13.00;11.40;;;;;27.38;52.35;101102.81;2055987;28;46395;-61
2023/07/14 01:21:52;;;;;;;;;10.00;10.00;;;;;27.38;52.08;101106.41;2062973;28;46807;-61
2023/07/14 01:22:58;;;;;;;;;13.20;13.00;;;;;27.36;51.74;101100.22;2062244;28;46662;-61
2023/07/14 01:24:10;;;;;;;;;13.80;12.20;;;;;27.35;52.46;101094.91;2062212;28;46342;-62
2023/07/14 01:25:18;;;;;;;;;13.20;13.00;;;;;27.34;52.11;101102.22;2062847;28;46602;-60
2023/07/14 01:26:24;;;;;;;;;11.60;10.60;;;;;27.32;52.82;101104.22;2062268;28;46485;-59
2023/07/14 01:27:24;;;;;;;;;13.40;11.40;;;;;27.30;52.62;101092.56;2061506;28;46750;-60
2023/07/14 01:28:25;;;;;;;;;13.00;11.00;;;;;27.30;52.50;101094.41;2062508;28;46904;-61
2023/07/14 01:29:26;;;;;;;;;11.00;10.50;;;;;27.28;52.64;101098.16;2069764;28;46384;-60
2023/07/14 01:30:26;;;;;;;;;11.40;9.60;;;;;27.26;52.57;101093.81;2079063;28;46698;-61
2023/07/14 01:31:27;;;;;;;;;6.50;6.50;;;;;27.22;52.96;101090.50;2078384;28;46382;-62
2023/07/14 01:32:37;;;;;;;;;15.25;13.75;;;;;27.22;52.58;101087.78;2078233;28;46320;-61
2023/07/14 01:33:37;;;;;;;;;11.60;11.00;;;;;27.19;53.08;101082.59;2075293;28;46372;-60
2023/07/14 01:34:38;;;;;;;;;7.25;5.50;;;;;27.19;52.63;101089.91;2078718;28;46987;-60
2023/07/14 01:35:42;;;;;;;;;10.80;10.80;;;;;27.21;52.63;101077.03;2079247;28;46516;-61
2023/07/14 01:36:46;;;;;;;;;13.40;13.20;;;;;27.20;53.35;101078.88;2078901;28;46991;-61
2023/07/14 01:37:46;;;;;;;;;11.60;11.00;;;;;27.20;52.60;101076.16;2079263;28;46826;-61
2023/07/14 01:38:47;;;;;;;;;10.00;10.00;;;;;27.19;52.97;101073.56;2079011;28;46325;-61
2023/07/14 01:39:51;;;;;;;;;12.60;11.80;;;;;27.22;52.63;101071.44;2070784;28;46443;-60
2023/07/14 01:40:53;;;;;;;;;14.00;13.60;;;;;27.21;53.23;101077.03;2070921;28;46916;-61
2023/07/14 01:41:53;;;;;;;;;12.40;11.60;;;;;27.19;53.29;101076.28;2077929;28;46685;-60
2023/07/14 01:43:00;;;;;;;;;16.00;14.00;;;;;27.20;53.17;101076.16;2089475;28;46598;-61
2023/07/14 01:44:03;;;;;;;;;12.20;11.00;;;;;27.21;53.38;101074.28;2096526;28;46099;-62
2023/07/14 01:45:04;;;;;;;;;14.20;14.20;;;;;27.18;52.78;101079.97;2104771;28;47020;-60
2023/07/14 01:46:11;;;;;;;;;15.00;15.00;;;;;27.17;53.39;101073.66;2104535;28;46947;-60
2023/07/14 01:47:13;;;;;;;;;15.80;15.80;;;;;27.18;53.30;101072.69;2095013;28;46434;-60
2023/07/14 01:48:17;;;;;;;;;16.20;15.40;;;;;27.20;53.36;101072.56;2094737;28;46801;-62
2023/07/14 01:49:33;;;;;;;;;14.80;14.80;;;;;27.20;53.55;101073.44;2104950;28;46768;-59
2023/07/14 01:50:37;;;;;;;;;19.00;18.20;;;;;27.19;53.42;101070.84;2104704;28;46791;-62
2023/07/14 01:51:43;;;;;;;;;17.60;16.00;;;;;27.17;53.57;101070.09;2104659;28;46883;-61
2023/07/14 01:52:46;;;;;;;;;15.80;15.60;;;;;27.14;53.53;101063.03;2097594;28;46684;-62
2023/07/14 01:54:13;;;;;;;;;19.60;18.00;;;;;27.15;53.51;101063.91;2105233;28;46154;-61
2023/07/14 01:55:18;;;;;;;;;23.20;22.60;;;;;27.12;53.45;101070.50;2078552;28;47071;-60
2023/07/14 01:56:23;;;;;;;;;21.20;20.20;;;;;27.10;53.64;101067.03;2079129;28;46633;-60
2023/07/14 01:57:27;;;;;;;;;21.00;20.00;;;;;27.12;53.21;101069.63;2079002;28;45589;-61
2023/07/14 01:58:35;;;;;;;;;20.00;19.20;;;;;27.11;53.84;101067.91;2078482;28;46610;-61
2023/07/14 01:59:41;;;;;;;;;22.60;21.20;;;;;27.09;53.60;101068.03;2078784;28;46749;-61
2023/07/14 02:00:46;;;;;;;;;23.20;22.00;;;;;27.09;53.86;101054.41;2078513;28;46950;-60
2023/07/14 02:01:48;;;;;;;;;20.00;18.80;;;;;27.11;53.47;101065.19;2078405;28;46767;-60
2023/07/14 02:02:50;;;;;;;;;22.20;20.40;;;;;27.10;54.13;101058.00;2078438;28;47004;-60
2023/07/14 02:03:53;;;;;;;;;26.40;24.40;;;;;27.10;53.52;101058.00;2081780;28;46981;-62
2023/07/14 02:04:54;;;;;;;;;21.80;20.80;;;;;27.08;53.95;101062.72;2078853;28;46481;-60
2023/07/14 02:05:55;;;;;;;;;21.50;19.00;;;;;27.06;53.51;101053.78;2078699;28;46341;-60
2023/07/14 02:06:58;;;;;;;;;19.50;19.50;;;;;27.05;54.00;101049.34;2078209;28;46597;-61
2023/07/14 02:08:02;;;;;;;;;20.00;19.00;;;;;27.06;53.92;101054.69;2075357;28;46414;-60
2023/07/14 02:09:03;;;;;;;;;23.00;21.40;;;;;27.03;54.28;101052.19;2078896;28;46128;-61
2023/07/14 02:10:04;;;;;;;;;23.75;22.75;;;;;27.01;54.30;101051.47;2078261;28;46284;-60
2023/07/14 02:11:04;;;;;;;;;22.50;16.00;;;;;27.01;54.24;101059.63;2077731;28;46768;-60
2023/07/14 02:12:06;;;;;;;;;17.25;16.00;;;;;27.02;54.15;101058.66;2078167;28;46200;-58
2023/07/14 02:13:06;;;;;;;;;18.60;18.20;;;;;27.01;54.42;101056.03;2078522;28;46946;-60
2023/07/14 02:14:13;;;;;;;;;19.00;18.25;;;;;27.00;54.00;101060.59;2078895;28;45557;-60
2023/07/14 02:15:21;;;;;;;;;17.40;16.80;;;;;26.99;54.00;101059.75;2078378;28;46248;-59
2023/07/14 02:16:23;;;;;;;;;17.80;15.60;;;;;26.98;54.16;101057.16;2079722;28;45606;-59
2023/07/14 02:17:33;;;;;;;;;19.00;17.60;;;;;26.98;54.05;101057.16;2078816;28;46709;-61
2023/07/14 02:18:35;;;;;;;;;18.20;16.60;;;;;26.98;54.13;101059.88;2078873;28;46601;-60
2023/07/14 02:19:36;;;;;;;;;15.60;15.00;;;;;26.96;54.53;101051.84;2081762;28;46942;-60
2023/07/14 02:20:40;;;;;;;;;15.75;15.00;;;;;26.97;54.87;101053.56;2070137;28;46635;-59
2023/07/14 02:21:42;;;;;;;;;17.00;16.60;;;;;26.98;54.76;101058.00;2071316;28;46904;-60
2023/07/14 02:22:44;;;;;;;;;12.00;12.00;;;;;26.98;54.15;101063.47;2078699;28;46555;-59
2023/07/14 02:23:45;;;;;;;;;16.80;16.60;;;;;26.96;54.95;101057.28;2078162;28;46910;-61
2023/07/14 02:24:48;;;;;;;;;15.75;15.75;;;;;26.92;54.92;101058.53;2078863;28;46813;-61
2023/07/14 02:26:11;;;;;;;;;14.80;14.80;;;;;26.93;54.79;101060.28;2078245;28;46295;-60
2023/07/14 02:27:12;;;;;;;;;14.20;14.20;;;;;26.92;54.52;101055.78;2078728;28;47035;-61
2023/07/14 02:28:14;;;;;;;;;15.50;15.50;;;;;26.92;54.56;101061.25;2078615;28;46205;-61
2023/07/14 02:29:15;;;;;;;;;12.20;12.20;;;;;26.92;54.23;101061.25;2078349;28;46096;-61
2023/07/14 02:30:19;;;;;;;;;14.00;13.80;;;;;26.91;54.26;101051.34;2084439;28;46262;-61
2023/07/14 02:31:26;;;;;;;;;16.80;15.20;;;;;26.92;54.70;101063.09;2078879;28;46571;-60
2023/07/14 02:32:33;;;;;;;;;13.00;13.00;;;;;26.93;54.53;101056.66;2079634;28;46932;-60
2023/07/14 02:33:38;;;;;;;;;12.40;12.40;;;;;26.96;55.07;101056.44;2104182;28;46435;-60
2023/07/14 02:34:51;;;;;;;;;16.20;14.80;;;;;26.96;54.91;101057.28;2104186;28;46664;-60
2023/07/14 02:36:21;;;;;;;;;13.60;13.00;;;;;26.96;54.67;101059.16;2095227;28;46345;-60
2023/07/14 02:38:03;;;;;;;;;18.20;12.80;;;;;26.95;54.31;101061.00;2099792;27;46431;-60
2023/07/14 02:39:04;;;;;;;;;14.00;10.20;;;;;26.93;55.09;101056.66;2098173;28;46255;-60
2023/07/14 02:40:07;;;;;;;;;8.00;8.00;;;;;26.92;54.66;101054.94;2104207;28;46388;-60
2023/07/14 02:41:25;;;;;;;;;10.60;10.40;;;;;26.91;54.53;101056.78;2096221;28;45333;-60
2023/07/14 02:42:26;;;;;;;;;12.20;11.40;;;;;26.89;54.50;101058.78;2097389;28;47085;-61
2023/07/14 02:43:26;;;;;;;;;11.00;11.00;;;;;26.89;55.02;101045.16;2104338;28;46351;-61
2023/07/14 02:44:31;;;;;;;;;13.00;13.00;;;;;26.90;55.31;101046.03;2103522;28;46622;-60
2023/07/14 02:45:37;;;;;;;;;12.60;11.40;;;;;26.88;55.22;101050.75;2104331;28;46615;-60
2023/07/14 02:46:46;;;;;;;;;11.00;11.00;;;;;26.87;54.61;101049.03;2104426;28;46637;-60
2023/07/14 02:47:49;;;;;;;;;10.60;10.60;;;;;26.87;55.31;101052.63;2104999;27;46330;-61
2023/07/14 02:48:52;;;;;;;;;12.80;11.20;;;;;26.88;54.75;101050.75;2098715;28;45504;-61
2023/07/14 02:49:52;;;;;;;;;11.80;11.80;;;;;26.84;54.86;101050.16;2104909;28;47177;-61
2023/07/14 02:50:53;;;;;;;;;9.00;9.00;;;;;26.84;55.18;101049.28;2104101;28;46753;-60
2023/07/14 02:51:53;;;;;;;;;11.50;11.50;;;;;26.82;54.91;101038.53;2104694;28;46649;-60
2023/07/14 02:52:53;;;;;;;;;9.75;9.75;;;;;26.82;55.10;101038.53;2104452;27;46367;-60
2023/07/14 02:53:54;;;;;;;;;9.50;9.50;;;;;26.82;55.14;101040.41;2105004;28;46616;-60
2023/07/14 02:54:54;;;;;;;;;12.00;12.00;;;;;26.81;54.95;101047.69;2106364;28;46298;-60
2023/07/14 02:55:54;;;;;;;;;10.25;10.00;;;;;26.82;54.94;101048.56;2105856;28;46243;-60
2023/07/14 02:56:55;;;;;;;;;9.50;8.25;;;;;26.82;55.58;101051.28;2103932;28;46374;-61
2023/07/14 02:57:55;;;;;;;;;10.00;9.75;;;;;26.83;55.21;101045.72;2082594;28;46454;-60
2023/07/14 02:58:56;;;;;;;;;13.00;12.00;;;;;26.81;55.73;101033.22;2094266;28;46375;-59
2023/07/14 02:59:56;;;;;;;;;10.75;9.00;;;;;26.82;55.75;101037.66;2105674;28;46253;-60
2023/07/14 03:00:56;;;;;;;;;8.75;8.00;;;;;26.80;56.08;101035.06;2099108;28;46361;-62
2023/07/14 03:01:57;;;;;;;;;13.00;11.75;;;;;26.78;55.92;101038.91;2096774;28;46342;-61
2023/07/14 03:02:57;;;;;;;;;10.50;8.00;;;;;26.78;55.58;101038.91;2105672;28;46236;-60
2023/07/14 03:03:58;;;;;;;;;11.00;11.00;;;;;26.75;55.54;101034.59;2105858;28;46827;-60
2023/07/14 03:04:58;;;;;;;;;12.50;12.50;;;;;26.72;55.86;101037.56;2104528;28;46607;-60
2023/07/14 03:05:59;;;;;;;;;12.75;12.50;;;;;26.71;56.19;101035.84;2104998;27;46089;-61
2023/07/14 03:06:59;;;;;;;;;13.75;13.50;;;;;26.72;55.56;101037.56;2098588;28;47156;-60
2023/07/14 03:08:00;;;;;;;;;13.50;12.75;;;;;26.72;55.44;101034.84;2094317;28;46204;-60
2023/07/14 03:09:04;;;;;;;;;11.60;11.60;;;;;26.73;56.26;101039.31;2097047;28;46603;-60
2023/07/14 03:10:06;;;;;;;;;14.80;13.20;;;;;26.72;55.93;101039.44;2103426;28;46437;-60
2023/07/14 03:11:06;;;;;;;;;14.40;14.40;;;;;26.69;55.75;101038.72;2101808;28;46789;-60
2023/07/14 03:12:08;;;;;;;;;12.50;12.25;;;;;26.67;55.71;101035.22;2096665;28;46242;-61
2023/07/14 03:13:09;;;;;;;;;13.00;13.00;;;;;26.63;56.19;101036.50;2096898;28;46334;-61
2023/07/14 03:14:10;;;;;;;;;13.00;12.25;;;;;26.63;56.16;101035.63;2105864;28;46275;-61
2023/07/14 03:15:10;;;;;;;;;14.00;14.00;;;;;26.61;56.45;101035.75;2105617;28;46360;-59
2023/07/14 03:16:10;;;;;;;;;13.25;13.25;;;;;26.59;55.94;101023.28;2097694;28;46873;-61
2023/07/14 03:17:11;;;;;;;;;14.00;13.25;;;;;26.58;56.08;101025.13;2097219;28;46799;-61
2023/07/14 03:18:14;;;;;;;;;12.75;12.75;;;;;26.58;56.22;101024.28;2104396;28;46760;-61
2023/07/14 03:19:14;;;;;;;;;15.00;14.00;;;;;26.53;56.80;101016.47;2105794;28;46275;-61
2023/07/14 03:20:15;;;;;;;;;11.00;10.00;;;;;26.53;57.00;101015.59;2106080;28;46528;-60
2023/07/14 03:21:15;;;;;;;;;11.00;11.00;;;;;26.53;56.51;101010.16;2105637;28;46199;-59
2023/07/14 03:22:15;;;;;;;;;11.50;11.50;;;;;26.50;56.95;101016.72;2101005;28;46860;-61
2023/07/14 03:23:16;;;;;;;;;12.50;11.75;;;;;26.51;56.53;101014.88;2105812;28;46907;-60
2023/07/14 03:24:16;;;;;;;;;7.50;7.50;;;;;26.49;56.98;101022.31;2105453;28;46622;-60
2023/07/14 03:25:16;;;;;;;;;9.75;9.75;;;;;26.48;56.37;101013.28;2105803;27;46246;-61
2023/07/14 03:26:17;;;;;;;;;11.00;11.00;;;;;26.46;56.44;101004.38;2105621;28;46869;-60
2023/07/14 03:27:17;;;;;;;;;15.00;12.50;;;;;26.47;57.16;101002.53;2105654;28;46580;-60
2023/07/14 03:28:17;;;;;;;;;12.00;11.00;;;;;26.45;56.97;101007.25;2101901;28;46624;-60
2023/07/14 03:29:18;;;;;;;;;11.00;11.00;;;;;26.45;57.01;101004.50;2105421;28;46271;-60
2023/07/14 03:30:19;;;;;;;;;8.75;8.75;;;;;26.46;57.31;101003.53;2105367;28;46136;-58
2023/07/14 03:31:19;;;;;;;;;9.20;9.00;;;;;26.47;57.20;101010.69;2105623;28;46561;-60
2023/07/14 03:32:20;;;;;;;;;9.25;7.50;;;;;26.47;57.01;101007.97;2106217;28;46733;-61
2023/07/14 03:33:20;;;;;;;;;11.00;9.25;;;;;26.48;57.34;101007.84;2105848;28;46433;-58
2023/07/14 03:34:22;;;;;;;;;9.75;9.75;;;;;26.48;56.99;101007.84;2105895;28;46799;-61
2023/07/14 03:35:23;;;;;;;;;12.20;11.80;;;;;26.51;56.62;101014.88;2105653;28;46725;-61
2023/07/14 03:36:25;;;;;;;;;10.75;8.75;;;;;26.51;56.57;101015.75;2105657;28;46418;-61
2023/07/14 03:37:25;;;;;;;;;7.80;7.80;;;;;26.51;56.75;101015.75;2106228;28;46373;-59
2023/07/14 03:38:25;;;;;;;;;10.75;10.75;;;;;26.52;57.40;101012.03;2087493;28;46260;-61
2023/07/14 03:39:30;;;;;;;;;10.50;9.00;;;;;26.54;57.08;101010.03;2088084;28;46288;-60
2023/07/14 03:40:30;;;;;;;;;9.00;9.00;;;;;26.53;56.67;101013.75;2098144;28;46414;-61
2023/07/14 03:41:31;;;;;;;;;9.00;6.00;;;;;26.55;56.78;101010.88;2105728;28;46769;-60
2023/07/14 03:42:32;;;;;;;;;9.25;9.25;;;;;26.56;57.34;101008.06;2101491;28;46615;-58
2023/07/14 03:43:33;;;;;;;;;9.20;9.20;;;;;26.56;56.80;101004.47;2105464;28;46484;-59
2023/07/14 03:44:34;;;;;;;;;6.00;6.00;;;;;26.56;57.08;101004.47;2105540;28;46499;-60
2023/07/14 03:45:36;;;;;;;;;10.80;9.20;;;;;26.55;56.99;100992.72;2103384;28;45810;-60
2023/07/14 03:46:36;;;;;;;;;10.60;8.80;;;;;26.57;56.56;101007.06;2098507;28;46581;-61
2023/07/14 03:47:38;;;;;;;;;0.25;0.00;;;;;26.57;56.72;100998.91;2096259;28;46263;-61
2023/07/14 03:48:38;;;;;;;;;10.60;9.00;;;;;26.57;57.22;100998.91;2102505;28;46303;-61
2023/07/14 03:49:38;;;;;;;;;9.00;9.00;;;;;26.57;56.85;100998.03;2099118;28;46516;-59
2023/07/14 03:50:39;;;;;;;;;7.50;7.50;;;;;26.58;56.77;101000.63;2096076;28;46808;-61
2023/07/14 03:51:40;;;;;;;;;8.25;8.25;;;;;26.59;57.17;100996.06;2099215;28;46283;-61
2023/07/14 03:52:41;;;;;;;;;9.20;9.00;;;;;26.59;57.30;100994.19;2100570;28;46501;-61
2023/07/14 03:53:42;;;;;;;;;10.80;10.00;;;;;26.60;56.72;100992.34;2103555;28;46284;-62
2023/07/14 03:54:42;;;;;;;;;7.00;7.00;;;;;26.57;57.14;100990.75;2097172;28;46602;-59
2023/07/14 03:55:46;;;;;;;;;9.00;8.00;;;;;26.59;56.77;100985.16;2096034;28;46622;-60
2023/07/14 03:56:46;;;;;;;;;7.00;7.00;;;;;26.59;57.25;100990.59;2102070;28;46389;-61
2023/07/14 03:57:46;;;;;;;;;6.25;6.25;;;;;26.59;56.74;100977.84;2087664;28;46761;-61
2023/07/14 03:58:47;;;;;;;;;6.75;6.00;;;;;26.65;56.71;100985.50;2089091;28;46524;-61
2023/07/14 03:59:47;;;;;;;;;6.75;6.75;;;;;26.67;56.46;100982.63;2104565;28;46300;-61
2023/07/14 04:00:48;;;;;;;;;8.00;6.75;;;;;26.68;56.86;100981.66;2104351;28;46877;-61
2023/07/14 04:01:48;;;;;;;;;8.00;8.00;;;;;26.71;56.42;100983.25;2098241;28;46560;-61
2023/07/14 04:02:48;;;;;;;;;9.00;9.00;;;;;26.72;57.00;100983.13;2103411;28;46567;-59
2023/07/14 04:03:48;;;;;;;;;6.50;6.50;;;;;26.71;56.76;100984.13;2101980;28;46506;-59
2023/07/14 04:04:49;;;;;;;;;6.25;6.25;;;;;26.71;56.39;100984.13;2095839;28;46557;-60
2023/07/14 04:05:49;;;;;;;;;7.75;7.75;;;;;26.70;56.33;100985.13;2101844;28;46259;-59
2023/07/14 04:06:50;;;;;;;;;4.75;3.50;;;;;26.68;56.15;100979.81;2103197;28;46962;-60
2023/07/14 04:07:51;;;;;;;;;6.50;6.50;;;;;26.69;56.13;100983.41;2099770;28;46412;-60
2023/07/14 04:08:55;;;;;;;;;6.00;4.60;;;;;26.71;56.22;100986.84;2104196;28;46407;-60
2023/07/14 04:09:55;;;;;;;;;7.80;7.40;;;;;26.84;55.95;100990.25;2103300;28;46167;-59
2023/07/14 04:10:55;;;;;;;;;5.75;5.00;;;;;26.75;56.07;100988.31;2103989;28;46201;-60
2023/07/14 04:11:56;;;;;;;;;5.00;5.00;;;;;26.75;55.86;100982.00;2099516;28;46788;-61
2023/07/14 04:12:59;;;;;;;;;6.75;5.50;;;;;26.76;55.80;100981.00;2096093;28;45807;-60
2023/07/14 04:14:00;;;;;;;;;7.40;7.40;;;;;26.76;55.83;100981.84;2093347;28;46810;-60
2023/07/14 04:15:00;;;;;;;;;4.75;4.75;;;;;26.75;56.12;100977.41;2093019;28;46297;-60
2023/07/14 04:16:00;;;;;;;;;4.00;4.00;;;;;26.76;56.15;100981.00;2096419;28;46365;-61
2023/07/14 04:17:02;;;;;;;;;7.00;7.00;;;;;26.77;55.85;100982.72;2097585;28;46488;-60
2023/07/14 04:18:02;;;;;;;;;5.00;5.00;;;;;26.77;55.62;100982.72;2105632;28;46409;-60
2023/07/14 04:19:03;;;;;;;;;8.50;6.75;;;;;26.77;55.55;100983.59;2105409;28;46311;-59
2023/07/14 04:20:08;;;;;;;;;7.00;6.00;;;;;26.78;56.23;100974.41;2105294;28;46799;-60
2023/07/14 04:21:13;;;;;;;;;5.20;5.20;;;;;26.79;56.07;100978.88;2096525;28;46988;-61
2023/07/14 04:22:15;;;;;;;;;6.80;6.00;;;;;26.79;55.65;100978.88;2105319;27;46598;-61
2023/07/14 04:23:17;;;;;;;;;4.20;4.20;;;;;26.82;55.99;100980.50;2109164;27;46762;-60
2023/07/14 04:24:17;;;;;;;;;6.40;5.20;;;;;26.81;55.84;100974.19;2106001;28;46109;-61
2023/07/14 04:25:17;;;;;;;;;5.75;5.75;;;;;26.83;55.48;100976.78;2105563;28;46617;-59
2023/07/14 04:26:18;;;;;;;;;7.00;7.00;;;;;26.83;55.69;100977.63;2105158;28;46167;-59
2023/07/14 04:27:18;;;;;;;;;6.25;6.25;;;;;26.85;56.17;100972.91;2104297;28;46252;-60
2023/07/14 04:28:19;;;;;;;;;6.00;6.00;;;;;26.87;56.12;100978.22;2105385;28;47298;-61
2023/07/14 04:29:19;;;;;;;;;5.00;5.00;;;;;26.87;55.88;100972.78;2105229;28;46684;-59
2023/07/14 04:30:20;;;;;;;;;6.50;6.50;;;;;26.87;55.43;100976.34;2105565;28;46830;-60
2023/07/14 04:31:20;;;;;;;;;7.00;7.00;;;;;26.88;55.11;100974.50;2105345;28;46401;-60
2023/07/14 04:32:21;;;;;;;;;7.25;6.75;;;;;26.89;55.44;100971.63;2105224;28;46305;-60
2023/07/14 04:33:22;;;;;;;;;5.25;5.25;;;;;26.89;55.26;100981.66;2096359;28;47062;-60
2023/07/14 04:34:22;;;;;;;;;7.00;7.00;;;;;26.87;55.23;100973.63;2098174;28;46673;-60
2023/07/14 04:35:23;;;;;;;;;8.75;8.75;;;;;26.87;55.74;100975.50;2098362;28;46371;-60
2023/07/14 04:36:24;;;;;;;;;6.00;6.00;;;;;26.87;55.52;100976.34;2105302;28;46249;-62
2023/07/14 04:37:24;;;;;;;;;7.00;7.00;;;;;26.89;55.43;100976.22;2104624;28;46276;-60
2023/07/14 04:38:25;;;;;;;;;5.25;5.00;;;;;26.89;55.11;100968.91;2105476;28;46573;-60
2023/07/14 04:39:25;;;;;;;;;5.50;5.25;;;;;26.90;55.01;100970.63;2100353;28;46400;-61
2023/07/14 04:40:26;;;;;;;;;5.25;5.25;;;;;26.91;55.37;100976.94;2098918;28;46311;-61
2023/07/14 04:41:26;;;;;;;;;6.75;6.75;;;;;26.91;55.54;100972.38;2103953;28;46590;-61
2023/07/14 04:42:26;;;;;;;;;7.00;7.00;;;;;26.91;55.44;100963.34;2104862;28;46497;-60
2023/07/14 04:43:28;;;;;;;;;8.00;8.00;;;;;26.93;55.91;100961.34;2105279;28;46889;-58
2023/07/14 04:44:28;;;;;;;;;6.40;6.40;;;;;26.94;54.98;100963.09;2103898;28;46948;-59
2023/07/14 04:45:28;;;;;;;;;7.00;6.00;;;;;26.94;55.21;100958.50;2101584;28;46683;-60
2023/07/14 04:46:29;;;;;;;;;9.00;9.00;;;;;26.95;55.90;100965.69;2105694;28;46441;-61
2023/07/14 04:47:29;;;;;;;;;6.75;6.00;;;;;26.94;55.45;100961.22;2101970;27;47232;-60